Time;durP1;ratioP1;P1;durP2;ratioP2;P2;SDS_P1;SDS_P2;PMS_P1;PMS_P2;Temp;Humidity;BMP_temperature;BMP_pressure;BME280_temperature;BME280_humidity;BME280_pressure;Samples;Min_cycle;Max_cycle;Signal;HPM_P1;HPM_P2
2022/07/21 00:00:27;;;;;;;3.03;2.83;;;28.10;50.60;;;;;;5087546;28;45399;-71
2022/07/21 00:02:54;;;;;;;3.35;3.05;;;28.10;50.60;;;;;;5086451;28;47432;-73
2022/07/21 00:05:21;;;;;;;3.75;2.80;;;28.10;50.60;;;;;;5086933;28;45189;-72
2022/07/21 00:07:48;;;;;;;4.43;3.20;;;28.10;50.70;;;;;;5087186;28;45314;-72
2022/07/21 00:10:15;;;;;;;3.60;3.08;;;28.10;51.30;;;;;;5087373;28;45234;-72
2022/07/21 00:12:42;;;;;;;4.60;3.03;;;28.10;50.40;;;;;;5086833;28;45302;-72
2022/07/21 00:15:10;;;;;;;3.25;3.00;;;28.10;50.50;;;;;;5086846;28;45237;-72
2022/07/21 00:17:38;;;;;;;3.63;2.65;;;28.10;50.80;;;;;;5087164;28;45207;-72
2022/07/21 00:20:06;;;;;;;2.95;2.75;;;28.10;50.50;;;;;;5086031;28;45399;-72
2022/07/21 00:22:33;;;;;;;3.10;2.80;;;28.10;50.50;;;;;;5086758;28;46682;-72
2022/07/21 00:25:00;;;;;;;3.17;2.88;;;28.10;50.50;;;;;;5086809;28;45240;-72
2022/07/21 00:27:26;;;;;;;3.88;2.80;;;28.10;50.30;;;;;;5086860;28;45197;-72
2022/07/21 00:29:53;;;;;;;2.80;2.60;;;28.10;50.20;;;;;;5087063;28;45187;-72
2022/07/21 00:32:20;;;;;;;3.03;2.72;;;28.10;50.10;;;;;;5086755;28;45310;-72
2022/07/21 00:34:48;;;;;;;3.30;2.90;;;28.10;50.10;;;;;;5086655;28;45384;-72
2022/07/21 00:37:15;;;;;;;4.15;3.13;;;28.10;50.10;;;;;;5070674;28;45251;-72
2022/07/21 00:39:42;;;;;;;2.88;2.67;;;28.10;50.20;;;;;;5066270;28;45143;-72
2022/07/21 00:42:08;;;;;;;3.92;3.00;;;28.10;50.10;;;;;;5066306;28;45365;-72
2022/07/21 00:44:35;;;;;;;3.40;2.83;;;28.10;50.30;;;;;;5066268;28;45329;-72
2022/07/21 00:47:02;;;;;;;3.05;2.80;;;28.10;49.80;;;;;;5066447;28;45244;-73
2022/07/21 00:49:29;;;;;;;3.28;3.03;;;28.10;50.20;;;;;;5065809;28;45170;-72
2022/07/21 00:51:57;;;;;;;3.08;2.65;;;28.10;50.00;;;;;;5066057;28;45212;-72
2022/07/21 00:54:24;;;;;;;3.13;2.83;;;28.10;49.70;;;;;;5066097;28;45327;-72
2022/07/21 00:56:50;;;;;;;2.80;2.60;;;28.00;49.80;;;;;;5066267;28;45345;-72
2022/07/21 00:59:17;;;;;;;2.97;2.78;;;28.00;49.80;;;;;;5066394;28;45293;-72
2022/07/21 01:01:44;;;;;;;2.70;2.50;;;28.00;49.70;;;;;;5065909;28;45253;-72
2022/07/21 01:04:11;;;;;;;3.08;2.85;;;28.00;49.60;;;;;;5066054;28;45182;-72
2022/07/21 01:06:38;;;;;;;3.00;2.80;;;28.00;49.60;;;;;;5066097;28;45186;-72
2022/07/21 01:09:06;;;;;;;3.05;2.80;;;28.00;49.80;;;;;;5066317;28;45302;-72
2022/07/21 01:11:32;;;;;;;3.67;2.78;;;28.00;49.50;;;;;;5065865;28;45370;-72
2022/07/21 01:13:59;;;;;;;3.47;3.17;;;28.00;49.70;;;;;;5065838;28;45305;-72
2022/07/21 01:16:26;;;;;;;3.40;3.10;;;28.00;49.60;;;;;;5065940;28;45135;-72
2022/07/21 01:18:53;;;;;;;3.38;3.08;;;28.00;49.40;;;;;;5066205;28;45357;-72
2022/07/21 01:21:32;;;;;;;3.75;3.28;;;28.00;49.20;;;;;;5065755;28;45671;-72
2022/07/21 01:23:58;;;;;;;4.80;3.50;;;28.00;49.40;;;;;;5065689;28;45254;-72
2022/07/21 01:26:25;;;;;;;3.13;2.92;;;28.00;49.30;;;;;;5065900;28;45193;-72
2022/07/21 01:28:52;;;;;;;3.28;2.97;;;27.90;48.90;;;;;;5069305;28;45480;-72
2022/07/21 01:31:19;;;;;;;3.00;2.80;;;27.90;49.30;;;;;;5087385;27;46417;-72
2022/07/21 01:33:46;;;;;;;4.25;3.13;;;27.90;49.00;;;;;;5089326;28;45252;-72
2022/07/21 01:36:13;;;;;;;2.88;2.67;;;27.90;49.10;;;;;;5081657;28;45333;-71
2022/07/21 01:41:32;;;;;;;3.80;2.75;;;27.90;49.10;;;;;;5066321;28;45837;-70
2022/07/21 01:44:00;;;;;;;3.47;3.28;;;27.80;48.90;;;;;;5068489;28;45298;-71
2022/07/21 01:46:28;;;;;;;3.67;3.38;;;27.80;48.80;;;;;;5068288;28;45300;-72
2022/07/21 01:48:54;;;;;;;3.67;3.38;;;27.80;48.90;;;;;;5069230;28;45336;-72
2022/07/21 01:51:21;;;;;;;3.88;3.40;;;27.80;49.00;;;;;;5068774;28;45310;-72
2022/07/21 01:53:49;;;;;;;4.50;3.40;;;27.80;49.00;;;;;;5068721;28;45448;-72
2022/07/21 01:56:18;;;;;;;3.20;2.97;;;27.70;48.80;;;;;;5068825;28;45234;-72
2022/07/21 01:58:45;;;;;;;3.75;3.33;;;27.70;48.90;;;;;;5069015;28;45480;-72
2022/07/21 02:01:12;;;;;;;3.35;3.05;;;27.80;48.80;;;;;;5068572;28;46393;-72
2022/07/21 02:03:38;;;;;;;3.60;3.30;;;27.70;48.80;;;;;;5068674;28;45419;-72
2022/07/21 02:06:07;;;;;;;3.85;3.55;;;27.70;48.80;;;;;;5068787;28;45166;-72
2022/07/21 02:08:34;;;;;;;3.63;3.33;;;27.70;48.90;;;;;;5068885;28;45166;-72
2022/07/21 02:11:02;;;;;;;3.95;3.47;;;27.70;49.00;;;;;;5068487;28;45287;-72
2022/07/21 02:13:29;;;;;;;3.88;3.58;;;27.70;48.90;;;;;;5068628;28;45299;-72
2022/07/21 02:15:55;;;;;;;3.45;3.15;;;27.70;48.90;;;;;;5068561;28;45362;-72
2022/07/21 02:18:22;;;;;;;3.70;3.40;;;27.70;48.90;;;;;;5068719;28;45440;-72
2022/07/21 02:20:50;;;;;;;4.25;3.90;;;27.70;48.90;;;;;;5068338;28;45482;-72
2022/07/21 02:23:17;;;;;;;3.80;3.50;;;27.70;48.80;;;;;;5068250;28;45306;-72
2022/07/21 02:25:43;;;;;;;3.88;3.58;;;27.60;48.90;;;;;;5068709;28;45316;-73
2022/07/21 02:28:12;;;;;;;4.28;3.70;;;27.60;48.80;;;;;;5068615;28;45234;-72
2022/07/21 02:30:38;;;;;;;3.88;3.58;;;27.60;48.90;;;;;;5086324;28;46412;-72
2022/07/21 02:33:05;;;;;;;4.30;3.90;;;27.70;48.80;;;;;;5087764;28;45260;-72
2022/07/21 02:35:32;;;;;;;3.67;3.38;;;27.60;48.70;;;;;;5086814;28;45294;-72
2022/07/21 02:37:59;;;;;;;4.00;3.70;;;27.60;48.70;;;;;;5068207;28;45314;-72
2022/07/21 02:40:26;;;;;;;4.03;3.72;;;27.70;48.90;;;;;;5068027;28;46400;-72
2022/07/21 02:42:52;;;;;;;3.83;3.53;;;27.60;48.70;;;;;;5067148;28;45203;-72
2022/07/21 02:45:21;;;;;;;4.07;3.67;;;27.60;48.70;;;;;;5068217;28;45170;-72
2022/07/21 02:47:51;;;;;;;4.32;3.80;;;27.60;48.70;;;;;;5068238;28;45432;-72
2022/07/21 02:50:18;;;;;;;4.20;3.80;;;27.60;48.70;;;;;;5067863;28;47267;-72
2022/07/21 02:52:45;;;;;;;4.13;3.80;;;27.60;48.70;;;;;;5067929;28;45349;-72
2022/07/21 02:55:12;;;;;;;4.47;4.03;;;27.60;48.80;;;;;;5068024;28;45250;-72
2022/07/21 02:57:38;;;;;;;4.47;4.10;;;27.60;48.70;;;;;;5068143;28;45283;-71
2022/07/21 03:00:06;;;;;;;4.53;4.13;;;27.60;48.70;;;;;;5067722;28;45326;-72
2022/07/21 03:02:34;;;;;;;4.00;3.63;;;27.60;48.80;;;;;;5067739;28;45307;-72
2022/07/21 03:05:01;;;;;;;4.30;3.95;;;27.60;48.80;;;;;;5067920;28;45229;-72
2022/07/21 03:07:28;;;;;;;4.30;3.90;;;27.50;48.60;;;;;;5067949;28;45289;-72
2022/07/21 03:09:55;;;;;;;4.22;3.83;;;27.50;48.70;;;;;;5067679;28;45455;-72
2022/07/21 03:12:22;;;;;;;4.03;3.72;;;27.50;48.50;;;;;;5067551;28;45190;-72
2022/07/21 03:14:48;;;;;;;4.30;3.83;;;27.50;48.60;;;;;;5067771;28;45202;-72
2022/07/21 03:17:15;;;;;;;4.30;3.92;;;27.50;48.70;;;;;;5067483;28;45234;-71
2022/07/21 03:19:43;;;;;;;4.47;4.15;;;27.50;48.60;;;;;;5066544;28;47424;-72
2022/07/21 03:22:10;;;;;;;4.18;3.80;;;27.50;48.60;;;;;;5067387;28;45232;-72
2022/07/21 03:24:37;;;;;;;4.28;3.97;;;27.50;48.50;;;;;;5067488;28;45250;-72
2022/07/21 03:27:04;;;;;;;4.05;3.75;;;27.50;48.60;;;;;;5067725;28;45113;-72
2022/07/21 03:29:31;;;;;;;4.53;4.13;;;27.50;48.50;;;;;;5075886;28;45322;-72
2022/07/21 03:31:57;;;;;;;4.45;4.07;;;27.50;48.50;;;;;;5087601;28;45401;-72
2022/07/21 03:34:24;;;;;;;4.40;4.00;;;27.50;48.50;;;;;;5087762;28;45265;-72
2022/07/21 03:36:52;;;;;;;4.57;4.18;;;27.40;48.60;;;;;;5074957;28;45151;-72
2022/07/21 03:39:19;;;;;;;4.30;3.90;;;27.50;48.60;;;;;;5066896;28;46417;-72
2022/07/21 03:41:46;;;;;;;4.72;4.28;;;27.40;48.40;;;;;;5067074;28;45236;-72
2022/07/21 03:44:13;;;;;;;4.32;3.95;;;27.40;48.30;;;;;;5067406;28;45328;-72
2022/07/21 03:46:39;;;;;;;4.97;4.57;;;27.50;48.50;;;;;;5067501;28;45329;-71
2022/07/21 03:49:06;;;;;;;4.82;4.43;;;27.40;48.30;;;;;;5066933;28;46496;-71
2022/07/21 03:51:33;;;;;;;4.82;4.43;;;27.40;48.80;;;;;;5067028;28;45177;-72
2022/07/21 03:54:01;;;;;;;5.40;4.70;;;27.40;48.90;;;;;;5066854;28;45190;-72
2022/07/21 03:56:28;;;;;;;4.65;4.35;;;27.40;48.30;;;;;;5067117;28;45495;-71
2022/07/21 03:58:55;;;;;;;5.10;4.60;;;27.40;48.20;;;;;;5066783;28;45479;-72
2022/07/21 04:01:22;;;;;;;4.78;4.35;;;27.40;48.30;;;;;;5066853;28;45203;-71
2022/07/21 04:03:49;;;;;;;5.50;5.00;;;27.40;48.40;;;;;;5066204;28;45201;-71
2022/07/21 04:06:15;;;;;;;4.82;4.43;;;27.40;48.30;;;;;;5067026;28;45187;-72
2022/07/21 04:08:42;;;;;;;4.85;4.45;;;27.40;48.30;;;;;;5066598;28;46790;-72
2022/07/21 04:11:10;;;;;;;4.85;4.43;;;27.40;48.20;;;;;;5066505;28;45323;-72
2022/07/21 04:13:37;;;;;;;4.90;4.50;;;27.40;48.20;;;;;;5066665;28;45187;-72
2022/07/21 04:16:04;;;;;;;4.63;4.22;;;27.40;48.20;;;;;;5066871;28;45469;-72
2022/07/21 04:18:31;;;;;;;4.90;4.40;;;27.30;48.10;;;;;;5066529;28;46408;-72
2022/07/21 04:20:58;;;;;;;4.90;4.45;;;27.30;48.20;;;;;;5066499;28;45308;-72
2022/07/21 04:23:25;;;;;;;5.03;4.63;;;27.30;48.20;;;;;;5066828;28;45310;-72
2022/07/21 04:25:51;;;;;;;4.80;4.40;;;27.30;48.70;;;;;;5066704;28;45281;-71
2022/07/21 04:28:20;;;;;;;5.15;4.47;;;27.30;48.10;;;;;;5066395;28;46387;-71
2022/07/21 04:30:46;;;;;;;4.72;4.38;;;27.30;48.10;;;;;;5085632;28;45293;-71
2022/07/21 04:33:13;;;;;;;4.65;4.35;;;27.30;48.00;;;;;;5086822;28;45514;-72
2022/07/21 04:35:40;;;;;;;5.20;4.80;;;27.30;48.10;;;;;;5084149;28;45395;-72
2022/07/21 04:38:07;;;;;;;5.40;4.93;;;27.30;48.10;;;;;;5065723;28;46458;-72
2022/07/21 04:40:34;;;;;;;4.80;4.40;;;27.30;48.10;;;;;;5066094;28;45168;-72
2022/07/21 04:43:00;;;;;;;4.90;4.50;;;27.30;48.00;;;;;;5066302;28;45274;-72
2022/07/21 04:45:29;;;;;;;4.90;4.50;;;27.20;48.00;;;;;;5066573;28;45319;-71
2022/07/21 04:47:55;;;;;;;4.72;4.40;;;27.20;48.00;;;;;;5065884;28;46411;-71
2022/07/21 04:50:23;;;;;;;6.32;4.43;;;27.20;48.00;;;;;;5065379;28;45221;-71
2022/07/21 04:52:50;;;;;;;4.88;4.47;;;27.20;48.00;;;;;;5066366;28;45193;-71
2022/07/21 04:55:17;;;;;;;5.18;4.78;;;27.20;47.90;;;;;;5066531;28;45269;-72
2022/07/21 04:57:44;;;;;;;4.93;4.53;;;27.20;47.90;;;;;;5065916;28;46393;-71
2022/07/21 05:00:13;;;;;;;5.20;4.70;;;27.20;48.00;;;;;;5066194;28;45310;-71
2022/07/21 05:02:41;;;;;;;4.82;4.43;;;27.20;47.90;;;;;;5066233;28;45222;-71
2022/07/21 05:05:09;;;;;;;5.85;5.35;;;27.20;47.90;;;;;;5066182;28;45369;-71
2022/07/21 05:07:36;;;;;;;5.10;4.60;;;27.20;47.90;;;;;;5069242;28;45349;-71
2022/07/21 05:10:05;;;;;;;5.30;4.80;;;27.20;47.80;;;;;;5069494;28;45258;-71
2022/07/21 05:12:31;;;;;;;4.75;4.30;;;27.30;47.90;;;;;;5069764;28;45481;-71
2022/07/21 05:14:58;;;;;;;5.47;4.97;;;27.30;47.90;;;;;;5069538;28;45460;-71
2022/07/21 05:17:25;;;;;;;4.88;4.40;;;27.30;47.90;;;;;;5069192;28;46356;-72
2022/07/21 05:19:53;;;;;;;5.05;4.65;;;27.30;47.90;;;;;;5069289;28;45203;-72
2022/07/21 05:22:20;;;;;;;5.10;4.60;;;27.30;47.90;;;;;;5069536;28;45144;-71
2022/07/21 05:24:46;;;;;;;5.47;4.97;;;27.30;47.80;;;;;;5069711;28;45398;-71
2022/07/21 05:27:13;;;;;;;5.50;5.00;;;27.30;47.80;;;;;;5069161;28;45250;-71
2022/07/21 05:29:40;;;;;;;5.13;4.63;;;27.30;47.80;;;;;;5079216;28;45396;-71
2022/07/21 05:32:07;;;;;;;5.10;4.70;;;27.30;47.80;;;;;;5089738;28;45190;-72
2022/07/21 05:34:34;;;;;;;5.38;4.88;;;27.30;47.70;;;;;;5089687;28;45128;-71
2022/07/21 05:37:02;;;;;;;5.20;4.80;;;27.30;47.70;;;;;;5074399;28;45569;-71
2022/07/21 05:39:29;;;;;;;5.65;5.15;;;27.30;47.70;;;;;;5068803;28;45233;-71
2022/07/21 05:41:56;;;;;;;5.05;4.63;;;27.30;47.70;;;;;;5069177;28;45311;-71
2022/07/21 05:44:23;;;;;;;5.38;4.88;;;27.30;47.50;;;;;;5069283;28;45407;-71
2022/07/21 05:46:50;;;;;;;5.28;4.80;;;27.30;47.60;;;;;;5068791;28;45247;-72
2022/07/21 05:49:17;;;;;;;5.05;4.65;;;27.30;47.50;;;;;;5068927;28;45580;-72
2022/07/21 05:51:43;;;;;;;5.18;4.68;;;27.30;47.50;;;;;;5069017;28;45380;-72
2022/07/21 05:54:11;;;;;;;5.10;4.70;;;27.30;47.40;;;;;;5069189;28;45479;-72
2022/07/21 05:56:38;;;;;;;5.20;4.72;;;27.30;47.50;;;;;;5068526;28;46396;-72
2022/07/21 05:59:05;;;;;;;5.38;4.88;;;27.30;48.00;;;;;;5068717;28;45147;-72
2022/07/21 06:01:32;;;;;;;5.13;4.63;;;27.30;47.30;;;;;;5068972;28;45281;-72
2022/07/21 06:03:59;;;;;;;5.28;4.80;;;27.30;47.30;;;;;;5069121;28;45294;-72
2022/07/21 06:06:26;;;;;;;5.30;4.80;;;27.30;47.20;;;;;;5068420;28;46387;-72
2022/07/21 06:08:53;;;;;;;5.43;4.93;;;27.40;47.20;;;;;;5068628;28;45128;-72
2022/07/21 06:11:21;;;;;;;5.05;4.65;;;27.30;47.20;;;;;;5068744;28;45139;-72
2022/07/21 06:13:48;;;;;;;5.22;4.72;;;27.30;47.10;;;;;;5069241;28;45448;-72
2022/07/21 06:16:15;;;;;;;5.82;4.28;;;27.40;47.10;;;;;;5068576;28;46347;-72
2022/07/21 06:18:42;;;;;;;4.82;4.43;;;27.40;47.10;;;;;;5068312;28;45328;-72
2022/07/21 06:21:09;;;;;;;5.03;4.63;;;27.40;47.00;;;;;;5068002;28;45194;-71
2022/07/21 06:23:35;;;;;;;5.72;5.20;;;27.40;46.90;;;;;;5068599;28;45185;-72
2022/07/21 06:26:02;;;;;;;5.68;4.97;;;27.40;46.90;;;;;;5068385;28;46704;-72
2022/07/21 06:28:30;;;;;;;5.88;5.07;;;27.40;46.90;;;;;;5068436;28;44705;-72
2022/07/21 06:30:57;;;;;;;5.25;4.75;;;27.40;46.90;;;;;;5089110;28;45280;-72
2022/07/21 06:33:24;;;;;;;4.72;4.32;;;27.40;46.80;;;;;;5089171;28;45412;-72
2022/07/21 06:35:51;;;;;;;5.40;4.90;;;27.40;46.80;;;;;;5084273;28;46660;-72
2022/07/21 06:38:17;;;;;;;4.95;4.55;;;27.40;46.70;;;;;;5067784;28;45257;-73
2022/07/21 06:40:44;;;;;;;5.53;5.03;;;27.40;46.70;;;;;;5068238;28;45305;-73
2022/07/21 06:43:11;;;;;;;5.65;5.05;;;27.50;46.80;;;;;;5068459;28;45401;-72
2022/07/21 06:45:39;;;;;;;5.18;4.78;;;27.40;46.60;;;;;;5067940;28;46629;-72
2022/07/21 06:48:07;;;;;;;5.25;4.85;;;27.50;46.70;;;;;;5068294;28;45197;-72
2022/07/21 06:50:34;;;;;;;5.30;4.80;;;27.50;46.70;;;;;;5068530;28;45282;-72
2022/07/21 06:53:01;;;;;;;5.43;4.93;;;27.50;46.70;;;;;;5068477;28;45322;-73
2022/07/21 06:55:28;;;;;;;4.97;4.43;;;27.50;46.60;;;;;;5068218;28;46333;-72
2022/07/21 06:57:55;;;;;;;4.38;4.05;;;27.50;46.60;;;;;;5068154;28;45151;-73
2022/07/21 07:00:22;;;;;;;5.60;5.03;;;27.50;46.60;;;;;;5068182;28;45189;-72
2022/07/21 07:02:50;;;;;;;4.82;4.43;;;27.50;46.60;;;;;;5068219;28;45480;-73
2022/07/21 07:05:17;;;;;;;4.90;4.50;;;27.50;46.60;;;;;;5067990;28;45406;-73
2022/07/21 07:07:44;;;;;;;5.50;5.00;;;27.50;46.50;;;;;;5067275;28;45271;-73
2022/07/21 07:10:11;;;;;;;5.00;4.60;;;27.50;46.50;;;;;;5067965;28;45183;-73
2022/07/21 07:12:37;;;;;;;5.97;4.70;;;27.50;46.50;;;;;;5068119;28;45320;-73
2022/07/21 07:15:05;;;;;;;4.90;4.50;;;27.60;46.50;;;;;;5067523;28;45300;-73
2022/07/21 07:17:32;;;;;;;5.22;4.82;;;27.60;46.50;;;;;;5067556;28;45341;-73
2022/07/21 07:20:00;;;;;;;5.22;4.70;;;27.60;46.50;;;;;;5067784;28;45228;-73
2022/07/21 07:22:27;;;;;;;5.72;4.80;;;27.60;46.40;;;;;;5067933;28;45393;-73
2022/07/21 07:24:54;;;;;;;4.88;4.47;;;27.60;46.40;;;;;;5067353;28;45326;-73
2022/07/21 07:27:20;;;;;;;4.85;4.45;;;27.60;46.40;;;;;;5067431;28;45321;-73
2022/07/21 07:29:47;;;;;;;5.57;5.07;;;27.60;46.40;;;;;;5077991;28;45232;-73
2022/07/21 07:32:14;;;;;;;4.75;4.45;;;27.60;46.40;;;;;;5088189;28;45437;-73
2022/07/21 07:34:41;;;;;;;4.90;4.50;;;27.60;46.40;;;;;;5087773;28;46691;-73
2022/07/21 07:37:09;;;;;;;4.72;4.40;;;27.70;46.40;;;;;;5072649;28;45400;-73
2022/07/21 07:39:37;;;;;;;5.35;4.90;;;27.70;46.40;;;;;;5067438;28;45356;-73
2022/07/21 07:42:04;;;;;;;5.28;4.78;;;27.70;46.40;;;;;;5067844;28;45528;-73
2022/07/21 07:44:31;;;;;;;4.97;4.57;;;27.70;46.30;;;;;;5067535;28;45695;-73
2022/07/21 07:46:58;;;;;;;4.78;4.38;;;27.70;46.30;;;;;;5067103;28;45276;-73
2022/07/21 07:49:25;;;;;;;5.10;4.60;;;27.70;46.30;;;;;;5067551;28;45438;-73
2022/07/21 07:51:51;;;;;;;5.38;4.93;;;27.70;46.30;;;;;;5067390;28;45241;-73
2022/07/21 07:54:20;;;;;;;4.93;4.43;;;27.70;46.30;;;;;;5066250;28;46397;-73
2022/07/21 07:56:46;;;;;;;5.13;4.63;;;27.70;46.20;;;;;;5066812;28;45161;-73
2022/07/21 07:59:13;;;;;;;4.80;4.40;;;27.70;46.20;;;;;;5067093;28;45233;-73
2022/07/21 08:01:40;;;;;;;4.75;4.35;;;27.70;46.30;;;;;;5067955;28;45273;-73
2022/07/21 08:04:07;;;;;;;5.05;4.63;;;27.70;46.20;;;;;;5067572;28;45310;-73
2022/07/21 08:06:34;;;;;;;5.30;4.90;;;27.70;46.30;;;;;;5066878;28;45301;-73
2022/07/21 08:09:01;;;;;;;5.75;5.00;;;27.70;46.20;;;;;;5066825;28;45194;-74
2022/07/21 08:11:29;;;;;;;5.15;4.75;;;27.80;46.20;;;;;;5067192;28;45358;-73
2022/07/21 08:13:55;;;;;;;4.90;4.50;;;27.80;46.20;;;;;;5066559;28;46663;-74
2022/07/21 08:16:22;;;;;;;5.30;4.90;;;27.80;46.20;;;;;;5066639;28;45398;-73
2022/07/21 08:18:49;;;;;;;5.22;4.82;;;27.80;46.10;;;;;;5066899;28;45257;-73
2022/07/21 08:21:16;;;;;;;4.68;4.28;;;27.90;46.10;;;;;;5066972;28;45132;-73
2022/07/21 08:23:43;;;;;;;4.88;4.38;;;27.90;46.10;;;;;;5066372;28;46398;-72
2022/07/21 08:26:09;;;;;;;5.72;5.10;;;27.90;46.10;;;;;;5066504;28;45353;-73
2022/07/21 08:28:38;;;;;;;7.43;5.60;;;27.90;46.50;;;;;;5067790;28;45268;-72
2022/07/21 08:31:05;;;;;;;5.32;4.93;;;27.90;46.70;;;;;;5085470;28;45321;-72
2022/07/21 08:33:31;;;;;;;8.88;4.60;;;27.90;46.60;;;;;;5086633;28;46382;-74
2022/07/21 08:35:58;;;;;;;6.68;4.90;;;27.90;46.70;;;;;;5080880;28;45426;-72
2022/07/21 08:38:25;;;;;;;4.93;4.47;;;28.00;46.60;;;;;;5064865;28;45327;-74
2022/07/21 08:40:52;;;;;;;6.32;5.10;;;28.00;46.80;;;;;;5065757;28;45317;-74
2022/07/21 08:43:19;;;;;;;5.10;4.60;;;28.10;47.00;;;;;;5068743;28;45618;-73
2022/07/21 08:45:47;;;;;;;5.60;4.75;;;28.10;47.00;;;;;;5069462;28;45275;-72
2022/07/21 08:48:18;;;;;;;5.70;5.10;;;28.10;47.20;;;;;;5068845;28;45311;-72
2022/07/21 08:50:45;;;;;;;5.45;4.95;;;28.10;47.80;;;;;;5069248;28;45271;-72
2022/07/21 08:53:12;;;;;;;5.57;5.00;;;28.10;47.20;;;;;;5068709;28;45251;-72
2022/07/21 08:55:40;;;;;;;5.72;5.18;;;28.10;47.20;;;;;;5068829;28;45281;-72
2022/07/21 08:58:08;;;;;;;8.15;5.70;;;28.10;48.10;;;;;;5069304;28;45361;-71
2022/07/21 09:00:35;;;;;;;8.75;5.15;;;28.10;48.60;;;;;;5079856;28;45336;-72
2022/07/21 09:03:15;;;;;;;8.57;5.28;;;28.10;48.50;;;;;;5086164;28;46370;-71
2022/07/21 09:05:42;;;;;;;8.10;4.93;;;28.10;48.50;;;;;;5087825;28;45411;-71
2022/07/21 09:08:10;;;;;;;6.28;5.10;;;28.10;47.80;;;;;;5086881;28;45490;-72
2022/07/21 09:10:37;;;;;;;10.77;4.70;;;28.10;48.20;;;;;;5078192;28;45576;-73
2022/07/21 09:13:05;;;;;;;7.30;5.00;;;28.10;47.60;;;;;;5088712;28;46397;-70
2022/07/21 09:15:32;;;;;;;6.47;5.70;;;28.10;47.80;;;;;;5088752;28;45324;-71
2022/07/21 09:18:10;;;;;;;7.13;5.50;;;28.10;48.20;;;;;;5088581;28;46471;-72
2022/07/21 09:20:39;;;;;;;5.38;4.88;;;28.10;48.20;;;;;;5078316;28;45319;-72
2022/07/21 09:23:08;;;;;;;5.40;4.53;;;28.10;48.20;;;;;;5089979;28;45570;-72
2022/07/21 09:25:37;;;;;;;5.53;5.03;;;28.00;48.00;;;;;;5082322;28;45260;-73
2022/07/21 09:28:14;;;;;;;5.60;4.43;;;28.10;47.80;;;;;;5088633;28;45344;-72
2022/07/21 09:30:51;;;;;;;6.05;4.55;;;28.10;47.40;;;;;;5088156;28;45444;-72
2022/07/21 09:33:23;;;;;;;6.75;4.50;;;28.00;47.30;;;;;;5089035;28;45365;-71
2022/07/21 09:35:59;;;;;;;4.13;3.70;;;28.00;47.30;;;;;;5087706;28;45511;-72
2022/07/21 09:38:26;;;;;;;4.47;4.07;;;28.00;47.40;;;;;;5039279;28;1190790;-72
2022/07/21 09:40:53;;;;;;;5.30;4.80;;;28.00;47.90;;;;;;5089331;28;45434;-72
2022/07/21 09:43:31;;;;;;;5.20;4.65;;;27.90;48.90;;;;;;5088954;28;46701;-72
2022/07/21 09:46:01;;;;;;;6.35;4.88;;;27.90;48.50;;;;;;5088751;28;45344;-72
2022/07/21 09:48:32;;;;;;;5.57;4.63;;;28.00;48.50;;;;;;5089028;28;45319;-71
2022/07/21 09:51:19;;;;;;;5.75;5.03;;;28.10;48.20;;;;;;5088564;28;45343;-73
2022/07/21 09:53:50;;;;;;;4.97;4.50;;;28.10;48.10;;;;;;5088667;28;45311;-72
2022/07/21 09:56:17;;;;;;;6.95;4.95;;;28.20;47.70;;;;;;5088432;28;45314;-70
2022/07/21 09:58:44;;;;;;;5.30;4.38;;;28.20;47.40;;;;;;5085058;28;45268;-71
2022/07/21 10:01:11;;;;;;;5.70;4.65;;;28.30;47.20;;;;;;5083540;28;45324;-72
2022/07/21 10:03:38;;;;;;;6.50;4.47;;;28.30;47.50;;;;;;5085342;28;46682;-71
2022/07/21 10:06:07;;;;;;;5.50;4.97;;;28.30;47.50;;;;;;5088908;28;45269;-71
2022/07/21 10:08:34;;;;;;;6.05;4.65;;;28.40;47.20;;;;;;5088147;28;45314;-71
2022/07/21 10:11:01;;;;;;;7.38;4.47;;;28.40;47.00;;;;;;5088537;28;45714;-71
2022/07/21 10:13:27;;;;;;;4.82;3.90;;;28.40;46.80;;;;;;5088439;28;45309;-71
2022/07/21 10:15:55;;;;;;;4.47;4.07;;;28.50;46.70;;;;;;5088276;28;45335;-72
2022/07/21 10:18:22;;;;;;;4.50;4.10;;;28.50;46.40;;;;;;5088609;28;45249;-70
2022/07/21 10:20:50;;;;;;;3.83;3.53;;;28.50;46.20;;;;;;5088626;28;45510;-72
2022/07/21 10:23:28;;;;;;;4.20;3.55;;;28.50;46.30;;;;;;5088411;28;45378;-71
2022/07/21 10:25:54;;;;;;;3.60;3.30;;;28.50;46.50;;;;;;5088280;28;45376;-71
2022/07/21 10:28:23;;;;;;;3.22;2.90;;;28.50;45.90;;;;;;5088435;28;45308;-72
2022/07/21 10:30:51;;;;;;;4.15;3.13;;;28.50;44.80;;;;;;5085701;28;45558;-71
2022/07/21 10:33:19;;;;;;;3.67;2.75;;;28.50;44.90;;;;;;5082957;28;47834;-73
2022/07/21 10:35:46;;;;;;;2.83;2.42;;;28.60;44.50;;;;;;5088149;28;45333;-72
2022/07/21 10:38:28;;;;;;;3.15;2.85;;;28.60;44.60;;;;;;5087895;28;45308;-72
2022/07/21 10:40:55;;;;;;;4.07;2.78;;;28.70;44.60;;;;;;5088125;28;45444;-72
2022/07/21 10:43:43;;;;;;;3.20;2.50;;;28.70;44.50;;;;;;5087078;28;46856;-71
2022/07/21 10:46:38;;;;;;;2.88;2.58;;;28.80;45.00;;;;;;5083595;28;45415;-72
2022/07/21 10:49:06;;;;;;;3.30;2.80;;;28.90;45.40;;;;;;5080250;28;45276;-74
2022/07/21 10:51:34;;;;;;;8.43;3.45;;;28.90;44.40;;;;;;5088519;28;45428;-75
2022/07/21 10:54:25;;;;;;;4.03;2.70;;;28.90;45.70;;;;;;5087938;28;45343;-73
2022/07/21 10:57:24;;;;;;;5.57;2.63;;;28.90;43.60;;;;;;5087428;28;45376;-75
2022/07/21 11:00:25;;;;;;;3.25;2.60;;;28.90;44.50;;;;;;5087733;28;45419;-70
2022/07/21 11:02:55;;;;;;;8.32;3.03;;;29.10;43.40;;;;;;5014311;28;45457;-72
2022/07/21 11:05:24;;;;;;;5.68;2.35;;;29.00;43.00;;;;;;5018954;28;45466;-70
2022/07/21 11:08:12;;;;;;;6.95;2.88;;;28.90;42.20;;;;;;5046058;28;45354;-71
2022/07/21 11:10:41;;;;;;;2.90;2.60;;;28.90;42.80;;;;;;5087027;28;45303;-72
2022/07/21 11:13:08;;;;;;;7.20;2.67;;;28.90;42.90;;;;;;5088011;28;45189;-72
2022/07/21 11:15:45;;;;;;;6.57;3.20;;;28.90;42.80;;;;;;5087248;28;48767;-74
2022/07/21 11:18:12;;;;;;;5.00;2.80;;;29.00;42.80;;;;;;5072157;28;45273;-76
2022/07/21 11:20:39;;;;;;;4.28;2.45;;;29.00;43.50;;;;;;5086857;28;45288;-72
2022/07/21 11:23:06;;;;;;;2.80;2.60;;;29.00;42.50;;;;;;5088067;28;45327;-72
2022/07/21 11:25:34;;;;;;;3.17;2.70;;;29.00;42.30;;;;;;5089374;28;45355;-72
2022/07/21 11:28:03;;;;;;;4.15;2.80;;;29.10;43.00;;;;;;5087838;28;45265;-70
2022/07/21 11:30:30;;;;;;;3.38;2.28;;;29.20;43.20;;;;;;5087524;28;45206;-71
2022/07/21 11:32:56;;;;;;;3.55;2.50;;;29.30;43.30;;;;;;5087971;28;45318;-72
2022/07/21 11:35:24;;;;;;;2.85;2.55;;;29.30;41.10;;;;;;5087704;28;45141;-72
2022/07/21 11:37:50;;;;;;;4.30;2.28;;;29.40;41.20;;;;;;5087054;28;45329;-72
2022/07/21 11:40:18;;;;;;;3.13;2.40;;;29.50;41.20;;;;;;5088455;28;45325;-73
2022/07/21 11:42:46;;;;;;;3.10;2.50;;;29.50;41.30;;;;;;5088277;28;45649;-73
2022/07/21 11:45:15;;;;;;;3.83;2.53;;;29.60;41.40;;;;;;5088134;28;45290;-73
2022/07/21 11:47:42;;;;;;;4.00;2.58;;;29.70;41.10;;;;;;5086709;28;45423;-72
2022/07/21 11:50:10;;;;;;;2.85;2.20;;;29.70;40.90;;;;;;5086848;28;45391;-71
2022/07/21 11:52:37;;;;;;;3.08;2.67;;;29.80;41.40;;;;;;5088315;28;45403;-73
2022/07/21 11:55:05;;;;;;;3.55;2.50;;;30.00;41.20;;;;;;5085646;28;45282;-73
2022/07/21 11:57:32;;;;;;;2.80;2.20;;;30.10;41.20;;;;;;5087736;28;45542;-71
2022/07/21 11:59:59;;;;;;;3.40;2.78;;;30.20;40.70;;;;;;5088177;28;45363;-72
2022/07/21 12:02:29;;;;;;;6.13;2.90;;;30.20;39.70;;;;;;5088564;28;45328;-74
2022/07/21 12:04:56;;;;;;;4.18;2.40;;;30.20;38.90;;;;;;5087562;28;45292;-72
2022/07/21 12:07:26;;;;;;;2.65;2.08;;;30.10;37.80;;;;;;5088393;28;45313;-72
2022/07/21 12:09:54;;;;;;;2.97;2.42;;;30.10;37.90;;;;;;5087654;28;45284;-73
2022/07/21 12:12:34;;;;;;;4.97;3.65;;;30.10;38.30;;;;;;5086975;28;45234;-74
2022/07/21 12:15:11;;;;;;;2.70;2.50;;;30.20;38.40;;;;;;5086255;28;45485;-73
2022/07/21 12:17:40;;;;;;;2.58;2.33;;;30.10;37.90;;;;;;5085278;28;45518;-72
2022/07/21 12:20:08;;;;;;;3.67;2.45;;;30.00;38.90;;;;;;5085830;28;45324;-73
2022/07/21 12:22:36;;;;;;;3.25;2.33;;;30.10;38.40;;;;;;5086712;28;45447;-73
2022/07/21 12:25:04;;;;;;;2.30;2.10;;;30.20;38.20;;;;;;5085892;28;45334;-72
2022/07/21 12:27:32;;;;;;;2.10;1.88;;;30.30;38.00;;;;;;5085773;28;45390;-73
2022/07/21 12:29:59;;;;;;;2.53;2.33;;;30.50;38.30;;;;;;5086164;28;45411;-73
2022/07/21 12:32:47;;;;;;;3.85;2.15;;;30.60;39.20;;;;;;5086667;28;45249;-74
2022/07/21 12:35:25;;;;;;;2.50;2.30;;;30.80;39.00;;;;;;5086343;28;46711;-74
2022/07/21 12:37:59;;;;;;;4.22;2.35;;;30.80;37.80;;;;;;5085015;28;45533;-73
2022/07/21 12:40:26;;;;;;;3.00;2.30;;;30.70;37.80;;;;;;5086283;28;45308;-73
2022/07/21 12:43:07;;;;;;;3.25;2.20;;;30.80;37.60;;;;;;5086360;28;45522;-73
2022/07/21 12:45:48;;;;;;;3.97;2.47;;;30.90;38.00;;;;;;5082465;28;45551;-71
2022/07/21 12:48:17;;;;;;;3.17;2.13;;;31.00;37.80;;;;;;5071480;28;45254;-73
2022/07/21 12:51:12;;;;;;;4.68;2.60;;;31.00;36.90;;;;;;5085839;28;45245;-72
2022/07/21 12:53:42;;;;;;;9.05;2.60;;;31.00;36.70;;;;;;5085378;28;45402;-70